createdAt,value
2022-08-23T00:00:20.170Z,99545.59
2022-08-23T00:05:23.158Z,99546.03
2022-08-23T00:10:26.010Z,99539.28
2022-08-23T00:15:29.520Z,99538.47
2022-08-23T00:20:32.633Z,99532.97
2022-08-23T00:25:35.567Z,99525.00
2022-08-23T00:30:38.439Z,99531.91
2022-08-23T00:35:41.270Z,99524.53
2022-08-23T00:40:47.553Z,99538.78
2022-08-23T00:46:46.584Z,99534.94
2022-08-23T00:52:25.149Z,99541.81
2022-08-23T00:57:29.273Z,99542.50
2022-08-23T01:02:32.308Z,99553.41
2022-08-23T01:07:54.650Z,99558.53
2022-08-23T01:13:23.947Z,99557.03
2022-08-23T01:18:30.419Z,99566.72
2022-08-23T01:23:44.692Z,99564.84
2022-08-23T01:28:47.849Z,99568.03
2022-08-23T01:34:00.262Z,99568.72
2022-08-23T01:39:05.919Z,99579.63
2022-08-23T01:44:09.515Z,99578.31
2022-08-23T01:49:13.426Z,99579.94
2022-08-23T01:54:16.687Z,99576.44
2022-08-23T01:59:19.896Z,99583.81
2022-08-23T02:04:22.858Z,99587.31
2022-08-23T02:09:25.857Z,99588.97
2022-08-23T02:14:28.998Z,99583.56
2022-08-23T02:19:35.038Z,99588.97
2022-08-23T02:24:46.751Z,99581.50
2022-08-23T02:29:50.359Z,99590.97
2022-08-23T02:35:04.970Z,99597.75
2022-08-23T02:40:09.921Z,99595.06
2022-08-23T02:45:13.250Z,99612.03
2022-08-23T02:50:16.093Z,99607.47
2022-08-23T02:55:20.626Z,99615.88
2022-08-23T03:00:23.754Z,99616.69
2022-08-23T03:05:26.929Z,99625.69
2022-08-23T03:10:29.981Z,99623.00
2022-08-23T03:15:33.371Z,99622.19
2022-08-23T03:20:37.254Z,99630.88
2022-08-23T03:25:40.598Z,99630.03
2022-08-23T03:30:43.537Z,99645.47
2022-08-23T03:35:47.662Z,99635.53
2022-08-23T03:40:52.646Z,99646.06
2022-08-23T03:45:55.829Z,99640.69
2022-08-23T03:50:58.799Z,99640.91
2022-08-23T03:56:01.772Z,99645.72
2022-08-23T04:01:05.569Z,99652.38
2022-08-23T04:06:08.470Z,99666.28
2022-08-23T04:11:13.415Z,99667.34
2022-08-23T04:16:19.002Z,99670.03
2022-08-23T04:21:23.565Z,99674.38
2022-08-23T04:26:30.177Z,99680.22
2022-08-23T04:31:34.647Z,99674.84
2022-08-23T04:36:44.781Z,99675.19
2022-08-23T04:42:14.963Z,99681.38
2022-08-23T04:47:18.267Z,99679.31
2022-08-23T04:52:21.209Z,99695.22
2022-08-23T04:57:24.141Z,99694.16
2022-08-23T05:02:29.809Z,99696.59
2022-08-23T05:07:42.086Z,99693.91
2022-08-23T05:12:47.274Z,99704.25
2022-08-23T05:17:50.230Z,99707.75
2022-08-23T05:22:54.478Z,99703.19
2022-08-23T05:27:57.571Z,99705.19
2022-08-23T05:33:01.066Z,99713.41
2022-08-23T05:38:05.572Z,99723.91
2022-08-23T05:43:08.450Z,99715.59
2022-08-23T05:48:12.965Z,99726.25
2022-08-23T05:58:32.778Z,99755.41
2022-08-23T06:03:36.571Z,99753.31
2022-08-23T06:08:40.367Z,99747.91
2022-08-23T06:13:46.860Z,99757.63
2022-08-23T06:18:50.779Z,99766.19
2022-08-23T06:23:53.685Z,99767.81
2022-08-23T06:28:59.473Z,99776.47
2022-08-23T06:34:02.650Z,99777.16
2022-08-23T06:39:07.728Z,99783.41
2022-08-23T06:44:10.707Z,99791.81
2022-08-23T06:49:13.927Z,99793.34
2022-08-23T06:54:20.709Z,99794.53
2022-08-23T06:59:23.914Z,99793.00
2022-08-23T07:04:32.904Z,99796.41
2022-08-23T07:09:36.510Z,99792.53
2022-08-23T07:14:39.701Z,99806.94
2022-08-23T07:19:44.247Z,99802.72
2022-08-23T07:24:48.704Z,99812.22
2022-08-23T07:29:51.650Z,99810.44
2022-08-23T07:34:54.629Z,99819.72
2022-08-23T07:39:58.581Z,99814.91
2022-08-23T07:45:02.911Z,99822.19
2022-08-23T07:50:07.028Z,99816.09
2022-08-23T07:55:10.143Z,99823.56
2022-08-23T08:00:13.476Z,99824.97
2022-08-23T08:05:21.472Z,99824.44
2022-08-23T08:10:25.175Z,99831.44
2022-08-23T08:15:28.041Z,99830.97
2022-08-23T08:20:35.193Z,99823.59
2022-08-23T08:25:38.113Z,99825.03
2022-08-23T08:30:41.244Z,99833.28
2022-08-23T08:35:57.628Z,99834.41
2022-08-23T08:41:28.948Z,99844.22
2022-08-23T08:46:53.420Z,99849.97
2022-08-23T08:52:22.286Z,99843.44
2022-08-23T08:57:27.838Z,99847.66
2022-08-23T09:02:35.002Z,99849.38
2022-08-23T09:08:17.806Z,99843.72
2022-08-23T09:14:22.729Z,99848.91
2022-08-23T09:19:25.965Z,99838.72
2022-08-23T09:24:30.656Z,99838.25
2022-08-23T09:29:37.451Z,99837.25
2022-08-23T09:34:43.093Z,99840.59
2022-08-23T09:40:17.555Z,99840.16
2022-08-23T09:45:38.472Z,99842.75
2022-08-23T09:50:58.306Z,99843.75
2022-08-23T09:56:18.004Z,99842.84
2022-08-23T10:01:26.095Z,99842.00
2022-08-23T10:06:34.244Z,99850.88
2022-08-23T10:11:45.033Z,99849.91
2022-08-23T10:17:17.890Z,99855.31
2022-08-23T10:22:24.653Z,99849.91
2022-08-23T10:28:02.947Z,99847.13
2022-08-23T10:33:18.639Z,99846.22
2022-08-23T10:38:46.206Z,99844.31
2022-08-23T10:43:54.629Z,99851.94
2022-08-23T10:49:03.079Z,99844.84
2022-08-23T10:54:10.098Z,99843.75
2022-08-23T10:59:24.027Z,99846.22
2022-08-23T11:04:36.621Z,99832.38
2022-08-23T11:10:16.870Z,99830.06
2022-08-23T11:15:44.625Z,99827.22
2022-08-23T11:20:51.070Z,99830.28
2022-08-23T11:25:53.823Z,99818.34
2022-08-23T11:31:00.064Z,99817.31
2022-08-23T11:36:11.410Z,99820.94
2022-08-23T11:41:20.252Z,99816.63
2022-08-23T11:46:26.900Z,99808.47
2022-08-23T11:52:05.946Z,99819.56
2022-08-23T11:57:48.487Z,99815.13
2022-08-23T12:03:09.497Z,99817.44
2022-08-23T12:08:13.165Z,99822.13
2022-08-23T12:13:22.036Z,99815.41
2022-08-23T12:18:25.926Z,99818.19
2022-08-23T12:23:30.898Z,99823.59
2022-08-23T12:28:42.847Z,99816.78
2022-08-23T12:34:22.607Z,99811.59
2022-08-23T12:39:39.626Z,99814.84
2022-08-23T12:44:45.889Z,99821.38
2022-08-23T12:50:32.538Z,99823.50
2022-08-23T12:55:41.535Z,99834.56
2022-08-23T13:01:01.603Z,99831.41
2022-08-23T13:06:12.330Z,99823.28
2022-08-23T13:11:21.173Z,99829.34
2022-08-23T13:16:42.419Z,99823.66
2022-08-23T13:21:46.163Z,99822.38
2022-08-23T13:26:49.534Z,99820.81
2022-08-23T13:32:05.732Z,99828.44
2022-08-23T13:37:29.551Z,99828.94
2022-08-23T13:42:51.119Z,99811.28
2022-08-23T13:48:15.842Z,99823.56
2022-08-23T13:53:19.182Z,99819.03
2022-08-23T13:58:34.836Z,99813.59
2022-08-23T14:03:38.426Z,99817.63
2022-08-23T14:08:41.410Z,99813.47
2022-08-23T14:13:47.974Z,99825.72
2022-08-23T14:24:14.552Z,99830.38
2022-08-23T14:29:17.366Z,99820.84
2022-08-23T14:34:25.384Z,99821.34
2022-08-23T14:39:28.366Z,99814.50
2022-08-23T14:44:35.953Z,99817.25
2022-08-23T14:49:39.530Z,99814.59
2022-08-23T14:54:42.650Z,99810.88
2022-08-23T14:59:45.830Z,99818.25
2022-08-23T15:04:48.775Z,99819.59
2022-08-23T15:09:56.612Z,99806.34
2022-08-23T15:14:59.526Z,99810.69
2022-08-23T15:20:02.940Z,99799.28
2022-08-23T15:25:06.378Z,99803.66
2022-08-23T15:30:11.373Z,99804.97
2022-08-23T15:35:15.295Z,99813.38
2022-08-23T15:40:20.179Z,99820.44
2022-08-23T15:45:23.372Z,99809.25
2022-08-23T15:50:32.965Z,99820.06
2022-08-23T15:55:35.727Z,99822.44
2022-08-23T16:00:39.498Z,99838.38
2022-08-23T16:05:46.464Z,99827.16
2022-08-23T16:10:49.551Z,99831.59
2022-08-23T16:15:53.064Z,99836.84
2022-08-23T16:20:55.950Z,99841.88
2022-08-23T16:26:01.227Z,99842.28
2022-08-23T16:31:04.647Z,99839.72
2022-08-23T16:36:08.783Z,99848.25
2022-08-23T16:41:13.607Z,99844.88
2022-08-23T16:46:18.004Z,99855.25
2022-08-23T16:51:21.952Z,99858.25
2022-08-23T16:56:24.812Z,99861.56
2022-08-23T17:01:29.141Z,99865.72
2022-08-23T17:06:32.585Z,99845.72
2022-08-23T17:11:37.856Z,99862.56
2022-08-23T17:16:42.490Z,99863.97
2022-08-23T17:21:45.548Z,99875.88
2022-08-23T17:26:49.763Z,99880.31
2022-08-23T17:31:52.786Z,99885.56
2022-08-23T17:36:56.814Z,99893.22
2022-08-23T17:42:00.017Z,99900.09
2022-08-23T17:47:07.667Z,99905.31
2022-08-23T17:52:12.241Z,99914.63
2022-08-23T17:57:15.202Z,99918.50
2022-08-23T18:02:20.736Z,99927.56
2022-08-23T18:07:24.340Z,99924.44
2022-08-23T18:12:27.673Z,99936.16
2022-08-23T18:17:32.420Z,99946.84
2022-08-23T18:22:37.289Z,99961.03
2022-08-23T18:27:58.980Z,99965.50
2022-08-23T18:33:02.768Z,99979.47
2022-08-23T18:38:06.428Z,99979.94
2022-08-23T18:43:09.453Z,99985.44
2022-08-23T18:48:12.619Z,100003.53
2022-08-23T18:53:17.981Z,99996.72
2022-08-23T18:58:21.548Z,100005.03
2022-08-23T19:03:25.844Z,99988.41
2022-08-23T19:08:28.668Z,99994.59
2022-08-23T19:13:33.222Z,100000.13
2022-08-23T19:18:36.132Z,99996.25
2022-08-23T19:23:39.021Z,100004.69
2022-08-23T19:28:42.918Z,99997.78
2022-08-23T19:33:45.870Z,100000.78
2022-08-23T19:38:51.036Z,100012.28
2022-08-23T19:43:54.139Z,100021.63
2022-08-23T19:48:57.191Z,100025.22
2022-08-23T19:54:09.898Z,100024.03
2022-08-23T19:59:30.390Z,100011.28
2022-08-23T20:04:34.183Z,100014.19
2022-08-23T20:09:37.008Z,100014.19
2022-08-23T20:14:39.807Z,100012.78
2022-08-23T20:19:43.185Z,100025.44
2022-08-23T20:24:51.951Z,100025.44
2022-08-23T20:29:55.532Z,100019.22
2022-08-23T20:34:59.303Z,100012.53
2022-08-23T20:40:02.971Z,100001.19
2022-08-23T20:45:06.750Z,100003.41
2022-08-23T20:50:09.829Z,99988.28
2022-08-23T20:55:13.362Z,99999.06
2022-08-23T21:00:16.929Z,99982.91
2022-08-23T21:05:19.865Z,99986.88
2022-08-23T21:10:22.976Z,99993.09
2022-08-23T21:15:25.892Z,99981.75
2022-08-23T21:20:28.748Z,99988.16
2022-08-23T21:25:32.257Z,99999.53
2022-08-23T21:30:35.420Z,99987.56
2022-08-23T21:35:39.018Z,99999.41
2022-08-23T21:40:42.568Z,99987.69
2022-08-23T21:45:45.554Z,99996.56
2022-08-23T21:50:48.675Z,99997.63
2022-08-23T21:55:52.022Z,99991.06
2022-08-23T22:00:55.908Z,99987.78
2022-08-23T22:05:58.879Z,99999.81
2022-08-23T22:11:07.455Z,99996.78
2022-08-23T22:16:12.154Z,99992.88
2022-08-23T22:21:15.267Z,99988.19
2022-08-23T22:26:18.376Z,99983.03
2022-08-23T22:31:21.963Z,99980.19
2022-08-23T22:36:25.227Z,99966.00
2022-08-23T22:41:30.257Z,99952.03
2022-08-23T22:46:35.724Z,99941.56
2022-08-23T22:51:38.831Z,99934.66
2022-08-23T22:56:50.837Z,99932.59
2022-08-23T23:02:01.567Z,99926.25
2022-08-23T23:07:06.367Z,99920.97
2022-08-23T23:12:09.385Z,99932.38
2022-08-23T23:17:29.942Z,99941.97
2022-08-23T23:22:47.474Z,99950.06
2022-08-23T23:27:51.249Z,99956.03
2022-08-23T23:32:54.415Z,99948.19
2022-08-23T23:37:58.467Z,99959.19
2022-08-23T23:43:01.927Z,99950.94
2022-08-23T23:48:07.683Z,99950.78
2022-08-23T23:53:11.793Z,99960.28
2022-08-23T23:58:14.825Z,99965.66
